sensor_id;sensor_type;location;lat;lon;timestamp;P1;durP1;ratioP1;P2;durP2;ratioP2
67721;SDS011;58309;45.292;11.820;2023-02-10T00:00:55;64.82;;;31.35;;
67721;SDS011;58309;45.292;11.820;2023-02-10T00:03:21;66.47;;;31.83;;
67721;SDS011;58309;45.292;11.820;2023-02-10T00:05:47;67.03;;;31.35;;
67721;SDS011;58309;45.292;11.820;2023-02-10T00:08:12;67.57;;;32.03;;
67721;SDS011;58309;45.292;11.820;2023-02-10T00:10:38;58.85;;;31.27;;
67721;SDS011;58309;45.292;11.820;2023-02-10T00:13:03;60.92;;;30.45;;
67721;SDS011;58309;45.292;11.820;2023-02-10T00:15:29;71.22;;;32.97;;
67721;SDS011;58309;45.292;11.820;2023-02-10T00:17:54;65.22;;;32.40;;
67721;SDS011;58309;45.292;11.820;2023-02-10T00:20:20;69.60;;;33.13;;
67721;SDS011;58309;45.292;11.820;2023-02-10T00:22:45;67.70;;;31.33;;
67721;SDS011;58309;45.292;11.820;2023-02-10T00:25:11;65.32;;;31.63;;
67721;SDS011;58309;45.292;11.820;2023-02-10T00:27:36;68.28;;;31.55;;
67721;SDS011;58309;45.292;11.820;2023-02-10T00:30:02;65.82;;;31.65;;
67721;SDS011;58309;45.292;11.820;2023-02-10T00:32:27;59.38;;;29.55;;
67721;SDS011;58309;45.292;11.820;2023-02-10T00:34:53;62.92;;;31.05;;
67721;SDS011;58309;45.292;11.820;2023-02-10T00:37:18;58.92;;;28.75;;
67721;SDS011;58309;45.292;11.820;2023-02-10T00:39:44;66.32;;;31.67;;
67721;SDS011;58309;45.292;11.820;2023-02-10T00:42:10;64.38;;;32.13;;
67721;SDS011;58309;45.292;11.820;2023-02-10T00:44:36;64.57;;;30.42;;
67721;SDS011;58309;45.292;11.820;2023-02-10T00:47:02;64.60;;;31.85;;
67721;SDS011;58309;45.292;11.820;2023-02-10T00:49:27;60.15;;;30.67;;
67721;SDS011;58309;45.292;11.820;2023-02-10T00:51:53;58.58;;;28.58;;
67721;SDS011;58309;45.292;11.820;2023-02-10T00:54:18;61.58;;;29.90;;
67721;SDS011;58309;45.292;11.820;2023-02-10T00:56:44;65.13;;;30.13;;
67721;SDS011;58309;45.292;11.820;2023-02-10T00:59:11;69.75;;;30.73;;
67721;SDS011;58309;45.292;11.820;2023-02-10T01:01:38;59.33;;;29.42;;
67721;SDS011;58309;45.292;11.820;2023-02-10T01:04:03;58.45;;;28.58;;
67721;SDS011;58309;45.292;11.820;2023-02-10T01:06:29;62.10;;;30.52;;
67721;SDS011;58309;45.292;11.820;2023-02-10T01:08:55;69.72;;;31.00;;
67721;SDS011;58309;45.292;11.820;2023-02-10T01:11:20;63.45;;;30.65;;
67721;SDS011;58309;45.292;11.820;2023-02-10T01:13:46;68.93;;;34.47;;
67721;SDS011;58309;45.292;11.820;2023-02-10T01:16:12;73.82;;;33.47;;
67721;SDS011;58309;45.292;11.820;2023-02-10T01:18:39;64.60;;;31.42;;
67721;SDS011;58309;45.292;11.820;2023-02-10T01:21:09;63.35;;;32.08;;
67721;SDS011;58309;45.292;11.820;2023-02-10T01:23:36;67.60;;;31.40;;
67721;SDS011;58309;45.292;11.820;2023-02-10T01:26:02;63.17;;;30.83;;
67721;SDS011;58309;45.292;11.820;2023-02-10T01:28:28;62.15;;;31.63;;
67721;SDS011;58309;45.292;11.820;2023-02-10T01:30:53;66.80;;;31.17;;
67721;SDS011;58309;45.292;11.820;2023-02-10T01:33:19;66.82;;;32.25;;
67721;SDS011;58309;45.292;11.820;2023-02-10T01:35:44;62.05;;;32.42;;
67721;SDS011;58309;45.292;11.820;2023-02-10T01:38:10;64.10;;;30.52;;
67721;SDS011;58309;45.292;11.820;2023-02-10T01:40:35;58.35;;;29.42;;
67721;SDS011;58309;45.292;11.820;2023-02-10T01:43:01;65.53;;;31.15;;
67721;SDS011;58309;45.292;11.820;2023-02-10T01:47:52;65.82;;;32.30;;
67721;SDS011;58309;45.292;11.820;2023-02-10T01:50:23;75.38;;;33.83;;
67721;SDS011;58309;45.292;11.820;2023-02-10T01:52:53;68.20;;;32.38;;
67721;SDS011;58309;45.292;11.820;2023-02-10T01:55:20;69.07;;;33.97;;
67721;SDS011;58309;45.292;11.820;2023-02-10T01:57:49;77.97;;;33.00;;
67721;SDS011;58309;45.292;11.820;2023-02-10T02:02:44;56.05;;;28.45;;
67721;SDS011;58309;45.292;11.820;2023-02-10T02:07:46;64.80;;;30.77;;
67721;SDS011;58309;45.292;11.820;2023-02-10T02:10:13;67.47;;;31.02;;
67721;SDS011;58309;45.292;11.820;2023-02-10T02:20:56;60.22;;;30.58;;
67721;SDS011;58309;45.292;11.820;2023-02-10T02:26:25;63.22;;;31.20;;
67721;SDS011;58309;45.292;11.820;2023-02-10T02:32:20;72.90;;;31.77;;
67721;SDS011;58309;45.292;11.820;2023-02-10T02:34:57;63.25;;;31.85;;
67721;SDS011;58309;45.292;11.820;2023-02-10T02:37:29;59.33;;;31.05;;
67721;SDS011;58309;45.292;11.820;2023-02-10T02:39:56;68.95;;;32.60;;
67721;SDS011;58309;45.292;11.820;2023-02-10T02:42:29;68.88;;;33.22;;
67721;SDS011;58309;45.292;11.820;2023-02-10T02:50:33;72.32;;;32.15;;
67721;SDS011;58309;45.292;11.820;2023-02-10T02:58:13;67.80;;;32.05;;
67721;SDS011;58309;45.292;11.820;2023-02-10T03:00:54;76.18;;;32.83;;
67721;SDS011;58309;45.292;11.820;2023-02-10T03:03:25;63.85;;;31.88;;
67721;SDS011;58309;45.292;11.820;2023-02-10T03:05:51;70.75;;;33.47;;
67721;SDS011;58309;45.292;11.820;2023-02-10T03:08:16;69.80;;;33.75;;
67721;SDS011;58309;45.292;11.820;2023-02-10T03:10:42;80.40;;;36.35;;
67721;SDS011;58309;45.292;11.820;2023-02-10T03:13:07;68.88;;;33.53;;
67721;SDS011;58309;45.292;11.820;2023-02-10T03:15:33;81.22;;;35.88;;
67721;SDS011;58309;45.292;11.820;2023-02-10T03:17:58;72.32;;;35.15;;
67721;SDS011;58309;45.292;11.820;2023-02-10T03:20:24;67.20;;;33.83;;
67721;SDS011;58309;45.292;11.820;2023-02-10T03:22:49;68.57;;;34.83;;
67721;SDS011;58309;45.292;11.820;2023-02-10T03:25:15;72.05;;;34.58;;
67721;SDS011;58309;45.292;11.820;2023-02-10T03:27:40;68.65;;;35.60;;
67721;SDS011;58309;45.292;11.820;2023-02-10T03:30:06;73.78;;;34.50;;
67721;SDS011;58309;45.292;11.820;2023-02-10T03:32:32;79.28;;;34.17;;
67721;SDS011;58309;45.292;11.820;2023-02-10T03:34:58;75.78;;;35.75;;
67721;SDS011;58309;45.292;11.820;2023-02-10T03:37:23;79.50;;;36.00;;
67721;SDS011;58309;45.292;11.820;2023-02-10T03:39:49;74.07;;;35.72;;
67721;SDS011;58309;45.292;11.820;2023-02-10T03:42:14;64.88;;;33.60;;
67721;SDS011;58309;45.292;11.820;2023-02-10T03:44:40;69.82;;;33.72;;
67721;SDS011;58309;45.292;11.820;2023-02-10T03:47:05;67.13;;;33.13;;
67721;SDS011;58309;45.292;11.820;2023-02-10T03:49:31;69.57;;;33.80;;
67721;SDS011;58309;45.292;11.820;2023-02-10T03:51:56;72.55;;;32.72;;
67721;SDS011;58309;45.292;11.820;2023-02-10T03:54:22;85.72;;;38.20;;
67721;SDS011;58309;45.292;11.820;2023-02-10T03:56:47;78.60;;;33.63;;
67721;SDS011;58309;45.292;11.820;2023-02-10T03:59:13;76.55;;;34.67;;
67721;SDS011;58309;45.292;11.820;2023-02-10T04:01:38;65.85;;;32.22;;
67721;SDS011;58309;45.292;11.820;2023-02-10T04:04:04;66.35;;;32.47;;
67721;SDS011;58309;45.292;11.820;2023-02-10T04:06:29;71.35;;;34.60;;
67721;SDS011;58309;45.292;11.820;2023-02-10T04:08:55;73.82;;;35.40;;
67721;SDS011;58309;45.292;11.820;2023-02-10T04:11:20;74.25;;;32.83;;
67721;SDS011;58309;45.292;11.820;2023-02-10T04:13:46;63.28;;;30.95;;
67721;SDS011;58309;45.292;11.820;2023-02-10T04:16:13;66.40;;;33.15;;
67721;SDS011;58309;45.292;11.820;2023-02-10T04:18:40;69.28;;;34.30;;
67721;SDS011;58309;45.292;11.820;2023-02-10T04:21:06;73.72;;;34.47;;
67721;SDS011;58309;45.292;11.820;2023-02-10T04:23:33;67.50;;;32.20;;
67721;SDS011;58309;45.292;11.820;2023-02-10T04:25:59;74.90;;;34.85;;
67721;SDS011;58309;45.292;11.820;2023-02-10T04:28:25;69.72;;;35.38;;
67721;SDS011;58309;45.292;11.820;2023-02-10T04:30:52;72.28;;;34.60;;
67721;SDS011;58309;45.292;11.820;2023-02-10T04:33:19;75.47;;;35.95;;
67721;SDS011;58309;45.292;11.820;2023-02-10T04:35:46;75.45;;;35.42;;
67721;SDS011;58309;45.292;11.820;2023-02-10T04:38:12;69.05;;;33.97;;
67721;SDS011;58309;45.292;11.820;2023-02-10T04:40:38;70.60;;;33.28;;
67721;SDS011;58309;45.292;11.820;2023-02-10T04:43:04;75.55;;;33.40;;
67721;SDS011;58309;45.292;11.820;2023-02-10T04:45:30;67.80;;;32.78;;
67721;SDS011;58309;45.292;11.820;2023-02-10T04:47:56;70.10;;;34.50;;
67721;SDS011;58309;45.292;11.820;2023-02-10T04:50:21;74.45;;;34.53;;
67721;SDS011;58309;45.292;11.820;2023-02-10T04:52:47;69.68;;;32.88;;
67721;SDS011;58309;45.292;11.820;2023-02-10T04:55:12;70.45;;;33.40;;
67721;SDS011;58309;45.292;11.820;2023-02-10T04:57:38;68.55;;;33.58;;
67721;SDS011;58309;45.292;11.820;2023-02-10T05:00:04;70.47;;;33.95;;
67721;SDS011;58309;45.292;11.820;2023-02-10T05:02:30;76.53;;;34.67;;
67721;SDS011;58309;45.292;11.820;2023-02-10T05:04:55;76.70;;;33.58;;
67721;SDS011;58309;45.292;11.820;2023-02-10T05:07:21;78.18;;;34.75;;
67721;SDS011;58309;45.292;11.820;2023-02-10T05:09:46;75.22;;;35.80;;
67721;SDS011;58309;45.292;11.820;2023-02-10T05:12:12;76.95;;;36.67;;
67721;SDS011;58309;45.292;11.820;2023-02-10T05:14:37;74.07;;;34.80;;
67721;SDS011;58309;45.292;11.820;2023-02-10T05:17:03;74.65;;;33.67;;
67721;SDS011;58309;45.292;11.820;2023-02-10T05:19:28;73.68;;;35.15;;
67721;SDS011;58309;45.292;11.820;2023-02-10T05:21:54;72.78;;;35.08;;
67721;SDS011;58309;45.292;11.820;2023-02-10T05:24:20;80.07;;;33.25;;
67721;SDS011;58309;45.292;11.820;2023-02-10T05:26:45;73.05;;;34.88;;
67721;SDS011;58309;45.292;11.820;2023-02-10T05:29:11;69.60;;;33.90;;
67721;SDS011;58309;45.292;11.820;2023-02-10T05:31:36;77.78;;;34.60;;
67721;SDS011;58309;45.292;11.820;2023-02-10T05:34:02;72.13;;;36.33;;
67721;SDS011;58309;45.292;11.820;2023-02-10T05:36:27;76.35;;;36.67;;
67721;SDS011;58309;45.292;11.820;2023-02-10T05:38:53;70.78;;;34.45;;
67721;SDS011;58309;45.292;11.820;2023-02-10T05:41:37;81.80;;;36.00;;
67721;SDS011;58309;45.292;11.820;2023-02-10T05:44:02;74.18;;;35.28;;
67721;SDS011;58309;45.292;11.820;2023-02-10T05:46:28;82.32;;;36.67;;
67721;SDS011;58309;45.292;11.820;2023-02-10T05:48:54;81.07;;;37.03;;
67721;SDS011;58309;45.292;11.820;2023-02-10T05:51:19;75.93;;;35.10;;
67721;SDS011;58309;45.292;11.820;2023-02-10T05:53:45;82.38;;;35.13;;
67721;SDS011;58309;45.292;11.820;2023-02-10T05:56:10;77.28;;;35.67;;
67721;SDS011;58309;45.292;11.820;2023-02-10T05:58:36;74.38;;;34.08;;
67721;SDS011;58309;45.292;11.820;2023-02-10T06:01:05;66.90;;;32.13;;
67721;SDS011;58309;45.292;11.820;2023-02-10T06:03:32;79.45;;;36.00;;
67721;SDS011;58309;45.292;11.820;2023-02-10T06:05:58;72.20;;;33.58;;
67721;SDS011;58309;45.292;11.820;2023-02-10T06:08:24;76.28;;;35.00;;
67721;SDS011;58309;45.292;11.820;2023-02-10T06:10:50;77.82;;;35.33;;
67721;SDS011;58309;45.292;11.820;2023-02-10T06:13:16;77.90;;;34.08;;
67721;SDS011;58309;45.292;11.820;2023-02-10T06:15:41;70.72;;;33.83;;
67721;SDS011;58309;45.292;11.820;2023-02-10T06:18:07;69.75;;;33.10;;
67721;SDS011;58309;45.292;11.820;2023-02-10T06:20:32;76.15;;;34.75;;
67721;SDS011;58309;45.292;11.820;2023-02-10T06:22:58;79.70;;;37.58;;
67721;SDS011;58309;45.292;11.820;2023-02-10T06:25:23;70.10;;;33.40;;
67721;SDS011;58309;45.292;11.820;2023-02-10T06:27:49;77.97;;;35.72;;
67721;SDS011;58309;45.292;11.820;2023-02-10T06:30:14;90.65;;;37.38;;
67721;SDS011;58309;45.292;11.820;2023-02-10T06:32:40;86.00;;;38.17;;
67721;SDS011;58309;45.292;11.820;2023-02-10T06:35:06;81.75;;;37.90;;
67721;SDS011;58309;45.292;11.820;2023-02-10T06:37:31;78.82;;;36.17;;
67721;SDS011;58309;45.292;11.820;2023-02-10T06:39:57;71.78;;;34.97;;
67721;SDS011;58309;45.292;11.820;2023-02-10T06:42:22;76.55;;;35.60;;
67721;SDS011;58309;45.292;11.820;2023-02-10T06:44:48;74.90;;;34.83;;
67721;SDS011;58309;45.292;11.820;2023-02-10T06:47:13;74.78;;;35.47;;
67721;SDS011;58309;45.292;11.820;2023-02-10T06:49:39;90.97;;;40.15;;
67721;SDS011;58309;45.292;11.820;2023-02-10T06:52:04;93.88;;;40.80;;
67721;SDS011;58309;45.292;11.820;2023-02-10T06:54:30;87.82;;;41.03;;
67721;SDS011;58309;45.292;11.820;2023-02-10T06:56:56;91.47;;;43.15;;
67721;SDS011;58309;45.292;11.820;2023-02-10T06:59:21;97.32;;;43.63;;
67721;SDS011;58309;45.292;11.820;2023-02-10T07:01:47;88.25;;;41.20;;
67721;SDS011;58309;45.292;11.820;2023-02-10T07:04:13;213.13;;;65.20;;
67721;SDS011;58309;45.292;11.820;2023-02-10T07:06:39;171.65;;;55.03;;
67721;SDS011;58309;45.292;11.820;2023-02-10T07:09:05;109.85;;;45.03;;
67721;SDS011;58309;45.292;11.820;2023-02-10T07:11:31;123.65;;;46.75;;
67721;SDS011;58309;45.292;11.820;2023-02-10T07:13:57;86.93;;;40.65;;
67721;SDS011;58309;45.292;11.820;2023-02-10T07:16:23;77.50;;;38.28;;
67721;SDS011;58309;45.292;11.820;2023-02-10T07:18:49;80.80;;;36.85;;
67721;SDS011;58309;45.292;11.820;2023-02-10T07:21:14;79.45;;;36.47;;
67721;SDS011;58309;45.292;11.820;2023-02-10T07:23:40;84.60;;;37.20;;
67721;SDS011;58309;45.292;11.820;2023-02-10T07:26:06;77.80;;;36.53;;
67721;SDS011;58309;45.292;11.820;2023-02-10T07:28:33;82.43;;;36.95;;
67721;SDS011;58309;45.292;11.820;2023-02-10T07:30:58;69.00;;;34.70;;
67721;SDS011;58309;45.292;11.820;2023-02-10T07:33:24;83.90;;;36.65;;
67721;SDS011;58309;45.292;11.820;2023-02-10T07:35:49;76.43;;;37.92;;
67721;SDS011;58309;45.292;11.820;2023-02-10T07:38:15;75.95;;;36.58;;
67721;SDS011;58309;45.292;11.820;2023-02-10T07:40:40;78.35;;;35.30;;
67721;SDS011;58309;45.292;11.820;2023-02-10T07:43:06;61.97;;;31.88;;
67721;SDS011;58309;45.292;11.820;2023-02-10T07:45:32;71.93;;;34.33;;
67721;SDS011;58309;45.292;11.820;2023-02-10T07:47:57;65.32;;;31.75;;
67721;SDS011;58309;45.292;11.820;2023-02-10T07:50:23;62.30;;;31.15;;
67721;SDS011;58309;45.292;11.820;2023-02-10T07:52:49;58.38;;;30.10;;
67721;SDS011;58309;45.292;11.820;2023-02-10T07:55:15;62.95;;;30.77;;
67721;SDS011;58309;45.292;11.820;2023-02-10T07:57:41;57.85;;;30.35;;
67721;SDS011;58309;45.292;11.820;2023-02-10T08:00:09;54.72;;;27.50;;
67721;SDS011;58309;45.292;11.820;2023-02-10T08:02:37;57.70;;;28.52;;
67721;SDS011;58309;45.292;11.820;2023-02-10T08:05:03;54.38;;;27.67;;
67721;SDS011;58309;45.292;11.820;2023-02-10T08:07:28;53.15;;;26.45;;
67721;SDS011;58309;45.292;11.820;2023-02-10T08:09:54;52.80;;;26.25;;
67721;SDS011;58309;45.292;11.820;2023-02-10T08:12:19;49.22;;;24.70;;
67721;SDS011;58309;45.292;11.820;2023-02-10T08:14:45;53.30;;;24.92;;
67721;SDS011;58309;45.292;11.820;2023-02-10T08:17:11;51.78;;;28.15;;
67721;SDS011;58309;45.292;11.820;2023-02-10T08:19:37;55.17;;;27.58;;
67721;SDS011;58309;45.292;11.820;2023-02-10T08:22:05;60.97;;;31.60;;
67721;SDS011;58309;45.292;11.820;2023-02-10T08:24:31;53.70;;;28.85;;
67721;SDS011;58309;45.292;11.820;2023-02-10T08:26:57;51.17;;;26.75;;
67721;SDS011;58309;45.292;11.820;2023-02-10T08:29:22;48.42;;;25.98;;
67721;SDS011;58309;45.292;11.820;2023-02-10T08:31:49;46.85;;;23.80;;
67721;SDS011;58309;45.292;11.820;2023-02-10T08:34:15;45.00;;;25.05;;
67721;SDS011;58309;45.292;11.820;2023-02-10T08:36:42;49.53;;;24.50;;
67721;SDS011;58309;45.292;11.820;2023-02-10T08:39:08;43.40;;;22.02;;
67721;SDS011;58309;45.292;11.820;2023-02-10T08:41:34;42.80;;;24.70;;
67721;SDS011;58309;45.292;11.820;2023-02-10T08:44:00;45.42;;;25.75;;
67721;SDS011;58309;45.292;11.820;2023-02-10T08:46:25;47.55;;;26.77;;
67721;SDS011;58309;45.292;11.820;2023-02-10T08:48:51;40.67;;;22.73;;
67721;SDS011;58309;45.292;11.820;2023-02-10T08:51:17;36.40;;;21.42;;
67721;SDS011;58309;45.292;11.820;2023-02-10T08:53:42;38.97;;;21.42;;
67721;SDS011;58309;45.292;11.820;2023-02-10T08:56:09;37.67;;;20.35;;
67721;SDS011;58309;45.292;11.820;2023-02-10T08:58:38;39.10;;;21.15;;
67721;SDS011;58309;45.292;11.820;2023-02-10T09:01:25;62.05;;;28.85;;
67721;SDS011;58309;45.292;11.820;2023-02-10T09:03:53;46.28;;;23.88;;
67721;SDS011;58309;45.292;11.820;2023-02-10T09:06:41;36.70;;;21.00;;
67721;SDS011;58309;45.292;11.820;2023-02-10T09:09:14;34.95;;;20.77;;
67721;SDS011;58309;45.292;11.820;2023-02-10T09:11:44;56.67;;;26.70;;
67721;SDS011;58309;45.292;11.820;2023-02-10T09:14:11;36.72;;;21.38;;
67721;SDS011;58309;45.292;11.820;2023-02-10T09:16:36;33.20;;;20.60;;
67721;SDS011;58309;45.292;11.820;2023-02-10T09:19:03;45.28;;;24.08;;
67721;SDS011;58309;45.292;11.820;2023-02-10T09:21:29;42.05;;;21.75;;
67721;SDS011;58309;45.292;11.820;2023-02-10T09:23:55;42.25;;;22.83;;
67721;SDS011;58309;45.292;11.820;2023-02-10T09:26:21;36.05;;;20.70;;
67721;SDS011;58309;45.292;11.820;2023-02-10T09:28:46;34.47;;;19.42;;
67721;SDS011;58309;45.292;11.820;2023-02-10T09:31:13;39.03;;;22.50;;
67721;SDS011;58309;45.292;11.820;2023-02-10T09:33:41;31.55;;;18.38;;
67721;SDS011;58309;45.292;11.820;2023-02-10T09:36:08;30.40;;;18.38;;
67721;SDS011;58309;45.292;11.820;2023-02-10T09:38:38;28.85;;;19.10;;
67721;SDS011;58309;45.292;11.820;2023-02-10T09:54:27;38.10;;;20.35;;
67721;SDS011;58309;45.292;11.820;2023-02-10T09:56:56;29.47;;;19.47;;
67721;SDS011;58309;45.292;11.820;2023-02-10T09:59:28;31.85;;;19.70;;
67721;SDS011;58309;45.292;11.820;2023-02-10T10:01:56;31.55;;;19.50;;
67721;SDS011;58309;45.292;11.820;2023-02-10T10:04:25;29.33;;;19.75;;
67721;SDS011;58309;45.292;11.820;2023-02-10T10:07:10;31.55;;;19.52;;
67721;SDS011;58309;45.292;11.820;2023-02-10T10:09:48;30.55;;;19.30;;
67721;SDS011;58309;45.292;11.820;2023-02-10T10:12:23;37.17;;;21.77;;
67721;SDS011;58309;45.292;11.820;2023-02-10T10:14:48;29.65;;;20.38;;
67721;SDS011;58309;45.292;11.820;2023-02-10T10:36:23;27.95;;;18.17;;
67721;SDS011;58309;45.292;11.820;2023-02-10T10:39:03;31.42;;;18.42;;
67721;SDS011;58309;45.292;11.820;2023-02-10T10:41:38;43.65;;;19.05;;
67721;SDS011;58309;45.292;11.820;2023-02-10T10:44:07;26.63;;;18.15;;
67721;SDS011;58309;45.292;11.820;2023-02-10T10:46:52;28.40;;;17.98;;
67721;SDS011;58309;45.292;11.820;2023-02-10T10:49:33;26.08;;;17.90;;
67721;SDS011;58309;45.292;11.820;2023-02-10T10:52:02;27.30;;;17.10;;
67721;SDS011;58309;45.292;11.820;2023-02-10T10:54:40;24.55;;;16.63;;
67721;SDS011;58309;45.292;11.820;2023-02-10T10:57:06;26.70;;;17.00;;
67721;SDS011;58309;45.292;11.820;2023-02-10T10:59:36;22.55;;;15.85;;
67721;SDS011;58309;45.292;11.820;2023-02-10T11:02:12;24.85;;;15.75;;
67721;SDS011;58309;45.292;11.820;2023-02-10T11:04:40;20.88;;;14.10;;
67721;SDS011;58309;45.292;11.820;2023-02-10T11:07:10;25.10;;;14.97;;
67721;SDS011;58309;45.292;11.820;2023-02-10T11:09:47;21.95;;;15.93;;
67721;SDS011;58309;45.292;11.820;2023-02-10T11:12:16;22.42;;;14.77;;
67721;SDS011;58309;45.292;11.820;2023-02-10T11:14:43;23.60;;;15.70;;
67721;SDS011;58309;45.292;11.820;2023-02-10T11:17:23;23.40;;;15.88;;
67721;SDS011;58309;45.292;11.820;2023-02-10T11:19:57;22.85;;;15.15;;
67721;SDS011;58309;45.292;11.820;2023-02-10T11:22:25;21.83;;;15.38;;
67721;SDS011;58309;45.292;11.820;2023-02-10T11:24:56;25.27;;;16.90;;
67721;SDS011;58309;45.292;11.820;2023-02-10T11:27:23;20.90;;;15.45;;
67721;SDS011;58309;45.292;11.820;2023-02-10T11:29:53;20.83;;;15.27;;
67721;SDS011;58309;45.292;11.820;2023-02-10T11:35:14;24.00;;;15.55;;
67721;SDS011;58309;45.292;11.820;2023-02-10T11:37:42;25.17;;;16.45;;
67721;SDS011;58309;45.292;11.820;2023-02-10T11:40:18;22.23;;;15.48;;
67721;SDS011;58309;45.292;11.820;2023-02-10T11:42:47;29.58;;;15.38;;
67721;SDS011;58309;45.292;11.820;2023-02-10T11:47:44;25.05;;;15.57;;
67721;SDS011;58309;45.292;11.820;2023-02-10T11:50:20;19.35;;;14.75;;
67721;SDS011;58309;45.292;11.820;2023-02-10T11:52:48;22.70;;;14.40;;
67721;SDS011;58309;45.292;11.820;2023-02-10T11:55:15;21.52;;;15.52;;
67721;SDS011;58309;45.292;11.820;2023-02-10T11:57:48;24.50;;;14.48;;
67721;SDS011;58309;45.292;11.820;2023-02-10T12:00:41;21.83;;;15.18;;
67721;SDS011;58309;45.292;11.820;2023-02-10T12:17:11;21.50;;;15.43;;
67721;SDS011;58309;45.292;11.820;2023-02-10T12:28:01;23.73;;;15.60;;
67721;SDS011;58309;45.292;11.820;2023-02-10T12:30:40;21.30;;;13.90;;
67721;SDS011;58309;45.292;11.820;2023-02-10T12:35:52;19.23;;;13.40;;
67721;SDS011;58309;45.292;11.820;2023-02-10T12:38:32;19.20;;;12.38;;
67721;SDS011;58309;45.292;11.820;2023-02-10T12:46:21;28.55;;;15.48;;
67721;SDS011;58309;45.292;11.820;2023-02-10T12:54:20;15.88;;;11.90;;
67721;SDS011;58309;45.292;11.820;2023-02-10T12:56:52;17.50;;;11.57;;
67721;SDS011;58309;45.292;11.820;2023-02-10T12:59:38;17.42;;;11.80;;
67721;SDS011;58309;45.292;11.820;2023-02-10T13:02:16;14.87;;;11.63;;
67721;SDS011;58309;45.292;11.820;2023-02-10T13:04:55;16.83;;;10.93;;
67721;SDS011;58309;45.292;11.820;2023-02-10T13:12:58;16.38;;;10.50;;
67721;SDS011;58309;45.292;11.820;2023-02-10T13:18:26;20.83;;;12.43;;
67721;SDS011;58309;45.292;11.820;2023-02-10T13:34:21;13.52;;;8.48;;
67721;SDS011;58309;45.292;11.820;2023-02-10T13:39:33;12.20;;;7.90;;
67721;SDS011;58309;45.292;11.820;2023-02-10T13:47:36;12.02;;;8.60;;
67721;SDS011;58309;45.292;11.820;2023-02-10T13:55:35;20.38;;;11.18;;
67721;SDS011;58309;45.292;11.820;2023-02-10T14:00:46;10.15;;;7.03;;
67721;SDS011;58309;45.292;11.820;2023-02-10T14:05:56;7.80;;;6.32;;
67721;SDS011;58309;45.292;11.820;2023-02-10T14:13:39;13.88;;;8.07;;
67721;SDS011;58309;45.292;11.820;2023-02-10T14:16:26;7.47;;;6.50;;
67721;SDS011;58309;45.292;11.820;2023-02-10T14:19:01;10.15;;;7.05;;
67721;SDS011;58309;45.292;11.820;2023-02-10T14:21:40;8.63;;;6.40;;
67721;SDS011;58309;45.292;11.820;2023-02-10T14:24:14;11.18;;;7.07;;
67721;SDS011;58309;45.292;11.820;2023-02-10T14:26:43;9.38;;;7.22;;
67721;SDS011;58309;45.292;11.820;2023-02-10T14:29:11;11.70;;;7.32;;
67721;SDS011;58309;45.292;11.820;2023-02-10T14:31:39;11.35;;;7.05;;
67721;SDS011;58309;45.292;11.820;2023-02-10T14:34:22;9.68;;;7.00;;
67721;SDS011;58309;45.292;11.820;2023-02-10T14:36:55;9.52;;;6.35;;
67721;SDS011;58309;45.292;11.820;2023-02-10T14:39:27;13.18;;;6.75;;
67721;SDS011;58309;45.292;11.820;2023-02-10T14:41:55;10.82;;;6.82;;
67721;SDS011;58309;45.292;11.820;2023-02-10T14:44:26;12.70;;;7.97;;
67721;SDS011;58309;45.292;11.820;2023-02-10T14:47:15;12.90;;;7.28;;
67721;SDS011;58309;45.292;11.820;2023-02-10T14:49:43;9.38;;;6.40;;
67721;SDS011;58309;45.292;11.820;2023-02-10T14:52:23;10.48;;;7.20;;
67721;SDS011;58309;45.292;11.820;2023-02-10T14:54:48;9.77;;;6.93;;
67721;SDS011;58309;45.292;11.820;2023-02-10T14:57:15;9.90;;;7.10;;
67721;SDS011;58309;45.292;11.820;2023-02-10T14:59:43;15.90;;;6.97;;
67721;SDS011;58309;45.292;11.820;2023-02-10T15:02:18;12.68;;;7.40;;
67721;SDS011;58309;45.292;11.820;2023-02-10T15:04:46;9.45;;;6.80;;
67721;SDS011;58309;45.292;11.820;2023-02-10T15:07:16;12.43;;;7.47;;
67721;SDS011;58309;45.292;11.820;2023-02-10T15:09:45;10.77;;;7.38;;
67721;SDS011;58309;45.292;11.820;2023-02-10T15:12:11;9.77;;;6.45;;
67721;SDS011;58309;45.292;11.820;2023-02-10T15:17:29;11.55;;;7.43;;
67721;SDS011;58309;45.292;11.820;2023-02-10T15:20:00;11.95;;;7.45;;
67721;SDS011;58309;45.292;11.820;2023-02-10T15:22:42;12.50;;;7.88;;
67721;SDS011;58309;45.292;11.820;2023-02-10T15:30:45;13.18;;;8.23;;
67721;SDS011;58309;45.292;11.820;2023-02-10T15:38:45;13.73;;;7.40;;
67721;SDS011;58309;45.292;11.820;2023-02-10T15:46:47;12.63;;;7.95;;
67721;SDS011;58309;45.292;11.820;2023-02-10T15:49:15;11.27;;;7.75;;
67721;SDS011;58309;45.292;11.820;2023-02-10T15:51:46;11.85;;;7.70;;
67721;SDS011;58309;45.292;11.820;2023-02-10T15:54:17;12.85;;;8.15;;
67721;SDS011;58309;45.292;11.820;2023-02-10T15:57:01;10.95;;;7.65;;
67721;SDS011;58309;45.292;11.820;2023-02-10T15:59:28;11.90;;;7.90;;
67721;SDS011;58309;45.292;11.820;2023-02-10T16:01:59;10.85;;;7.75;;
67721;SDS011;58309;45.292;11.820;2023-02-10T16:04:26;13.00;;;8.13;;
67721;SDS011;58309;45.292;11.820;2023-02-10T16:06:54;12.10;;;8.65;;
67721;SDS011;58309;45.292;11.820;2023-02-10T16:09:20;13.13;;;8.32;;
67721;SDS011;58309;45.292;11.820;2023-02-10T16:11:46;11.85;;;8.13;;
67721;SDS011;58309;45.292;11.820;2023-02-10T16:14:12;22.02;;;8.70;;
67721;SDS011;58309;45.292;11.820;2023-02-10T16:16:41;13.90;;;8.65;;
67721;SDS011;58309;45.292;11.820;2023-02-10T16:19:14;15.63;;;9.20;;
67721;SDS011;58309;45.292;11.820;2023-02-10T16:21:40;14.85;;;8.93;;
67721;SDS011;58309;45.292;11.820;2023-02-10T16:24:13;15.85;;;9.13;;
67721;SDS011;58309;45.292;11.820;2023-02-10T16:26:42;28.05;;;10.20;;
67721;SDS011;58309;45.292;11.820;2023-02-10T16:29:16;17.30;;;9.38;;
67721;SDS011;58309;45.292;11.820;2023-02-10T16:31:43;22.08;;;10.85;;
67721;SDS011;58309;45.292;11.820;2023-02-10T16:34:10;20.25;;;9.82;;
67721;SDS011;58309;45.292;11.820;2023-02-10T16:36:36;16.90;;;9.35;;
67721;SDS011;58309;45.292;11.820;2023-02-10T16:39:03;15.40;;;9.10;;
67721;SDS011;58309;45.292;11.820;2023-02-10T16:41:29;14.73;;;8.50;;
67721;SDS011;58309;45.292;11.820;2023-02-10T16:43:54;13.13;;;8.85;;
67721;SDS011;58309;45.292;11.820;2023-02-10T16:46:20;16.20;;;8.75;;
67721;SDS011;58309;45.292;11.820;2023-02-10T16:48:46;16.45;;;8.48;;
67721;SDS011;58309;45.292;11.820;2023-02-10T16:51:12;15.80;;;9.20;;
67721;SDS011;58309;45.292;11.820;2023-02-10T16:53:38;15.98;;;8.75;;
67721;SDS011;58309;45.292;11.820;2023-02-10T16:56:04;21.40;;;9.00;;
67721;SDS011;58309;45.292;11.820;2023-02-10T16:58:30;13.45;;;8.40;;
67721;SDS011;58309;45.292;11.820;2023-02-10T17:00:56;15.55;;;8.80;;
67721;SDS011;58309;45.292;11.820;2023-02-10T17:03:22;18.83;;;8.70;;
67721;SDS011;58309;45.292;11.820;2023-02-10T17:05:48;13.90;;;8.50;;
67721;SDS011;58309;45.292;11.820;2023-02-10T17:08:14;17.15;;;8.05;;